Alice Springs Airport


Codes: YBAS/ASP
Name: Alice Springs Airport
City: Alice Springs
Country: Australia
Elevation: 1789 ft.
Website:
Wikipedia:

Photos at Alice Springs Airport


   Photos courtesy of SpottingLog. You can add your own sightings and photos by signing up for a free trial today.



No photos found.

Weather at Alice Springs Airport


Time (UTC)DescriptionTempratureWindCloud coverageVisibilityPressureHumidity
21-Feb-2024 03:00Clear Sky35°C4 mph, S1%10000m1012hPa28%
21-Feb-2024 06:00Clear Sky36°C13 mph, S7%10000m1010hPa23%
21-Feb-2024 09:00Broken Clouds36°C13 mph, SE60%10000m1008hPa20%
21-Feb-2024 12:00Overcast Clouds32°C9 mph, SE87%10000m1008hPa22%
21-Feb-2024 15:00Clear Sky29°C4 mph, SE0%10000m1009hPa27%
21-Feb-2024 18:00Clear Sky28°C4 mph, N0%10000m1007hPa30%
21-Feb-2024 21:00Clear Sky27°C4 mph, NW4%10000m1009hPa35%
22-Feb-2024 00:00Clear Sky34°C4 mph, W3%10000m1009hPa21%
22-Feb-2024 03:00Few Clouds38°C11 mph, S14%10000m1006hPa14%
22-Feb-2024 06:00Broken Clouds40°C16 mph, SE51%10000m1004hPa11%
22-Feb-2024 09:00Broken Clouds38°C16 mph, SE72%10000m1005hPa12%
22-Feb-2024 12:00Broken Clouds32°C9 mph, SE77%10000m1008hPa21%
22-Feb-2024 15:00Broken Clouds30°C7 mph, E69%10000m1008hPa25%
22-Feb-2024 18:00Broken Clouds28°C9 mph, E57%10000m1008hPa31%
22-Feb-2024 21:00Scattered Clouds27°C7 mph, NE33%10000m1009hPa40%
23-Feb-2024 00:00Scattered Clouds33°C9 mph, SE32%10000m1011hPa29%
23-Feb-2024 03:00Overcast Clouds37°C18 mph, SE87%10000m1009hPa22%
23-Feb-2024 06:00Broken Clouds38°C20 mph, SE65%10000m1007hPa21%
23-Feb-2024 09:00Clear Sky35°C20 mph, SE6%10000m1008hPa23%
23-Feb-2024 12:00Clear Sky32°C13 mph, SE8%10000m1011hPa28%
23-Feb-2024 15:00Clear Sky30°C16 mph, SE8%10000m1010hPa31%
23-Feb-2024 18:00Few Clouds27°C16 mph, SE17%10000m1010hPa31%
23-Feb-2024 21:00Scattered Clouds25°C11 mph, SE25%10000m1012hPa30%
24-Feb-2024 00:00Few Clouds29°C16 mph, E14%10000m1013hPa22%
24-Feb-2024 03:00Clear Sky35°C13 mph, E2%10000m1010hPa21%
24-Feb-2024 06:00Clear Sky37°C13 mph, SE1%10000m1007hPa18%
24-Feb-2024 09:00Clear Sky35°C13 mph, SE0%10000m1008hPa17%
24-Feb-2024 12:00Clear Sky31°C11 mph, SE0%10000m1011hPa26%
24-Feb-2024 15:00Clear Sky29°C13 mph, SE0%10000m1011hPa29%
24-Feb-2024 18:00Clear Sky26°C11 mph, E0%10000m1010hPa32%
24-Feb-2024 21:00Clear Sky25°C9 mph, E0%10000m1012hPa35%
25-Feb-2024 00:00Clear Sky31°C13 mph, E1%10000m1013hPa24%
25-Feb-2024 03:00Clear Sky36°C11 mph, E1%10000m1010hPa16%
25-Feb-2024 06:00Clear Sky38°C13 mph, SE1%10000m1007hPa12%
25-Feb-2024 09:00Clear Sky36°C16 mph, SE0%10000m1008hPa14%
25-Feb-2024 12:00Clear Sky31°C11 mph, SE0%10000m1010hPa20%
25-Feb-2024 15:00Clear Sky29°C11 mph, SE0%10000m1011hPa23%
25-Feb-2024 18:00Clear Sky26°C7 mph, SE2%10000m1011hPa26%
25-Feb-2024 21:00Clear Sky25°C7 mph, E2%10000m1013hPa26%
26-Feb-2024 00:00Clear Sky32°C16 mph, E2%10000m1013hPa16%